Time;durP1;ratioP1;P1;durP2;ratioP2;P2;SDS_P1;SDS_P2;PMS_P1;PMS_P2;Temp;Humidity;BMP_temperature;BMP_pressure;BME280_temperature;BME280_humidity;BME280_pressure;Samples;Min_cycle;Max_cycle;Signal;HPM_P1;HPM_P2
2023/01/26 00:00:51;;;;;;;120.70;29.98;;;;;;;;;;4918159;29;20511;-77
2023/01/26 00:03:18;;;;;;;112.07;30.48;;;;;;;;;;4919060;29;20046;-77
2023/01/26 00:05:44;;;;;;;127.97;32.35;;;;;;;;;;4918100;29;20043;-77
2023/01/26 00:08:11;;;;;;;124.32;30.98;;;;;;;;;;4893793;29;20491;-77
2023/01/26 00:10:37;;;;;;;120.78;31.60;;;;;;;;;;4902284;29;20048;-77
2023/01/26 00:13:04;;;;;;;119.18;32.30;;;;;;;;;;4916393;29;20058;-78
2023/01/26 00:15:34;;;;;;;122.97;29.83;;;2.20;99.90;;;;;;4885232;29;20040;-77
2023/01/26 00:18:00;;;;;;;133.77;30.63;;;;;;;;;;4900555;29;20043;-77
2023/01/26 00:20:27;;;;;;;124.80;31.08;;;;;;;;;;4901496;29;20036;-77
2023/01/26 00:22:53;;;;;;;129.05;31.33;;;;;;;;;;4896572;29;20047;-77
2023/01/26 00:25:19;;;;;;;127.40;30.98;;;;;;;;;;4904120;29;20040;-77
2023/01/26 00:27:45;;;;;;;129.13;32.15;;;;;;;;;;4900770;29;20461;-77
2023/01/26 00:30:11;;;;;;;127.53;30.73;;;;;;;;;;4898984;29;20484;-77
2023/01/26 00:32:37;;;;;;;112.38;29.25;;;;;;;;;;4894864;29;20052;-77
2023/01/26 00:35:04;;;;;;;113.88;30.35;;;;;;;;;;4912064;29;20109;-77
2023/01/26 00:37:30;;;;;;;133.55;33.33;;;;;;;;;;4902357;29;20048;-77
2023/01/26 00:39:56;;;;;;;132.07;30.83;;;;;;;;;;4900147;29;20040;-77
2023/01/26 00:42:23;;;;;;;128.80;32.10;;;;;;;;;;4884779;29;20036;-77
2023/01/26 00:44:49;;;;;;;127.93;31.13;;;;;;;;;;4884390;29;20040;-77
2023/01/26 00:47:17;;;;;;;131.90;34.65;;;2.10;99.90;;;;;;4900087;29;20048;-77
2023/01/26 00:49:43;;;;;;;123.25;29.95;;;;;;;;;;4899939;29;20047;-77
2023/01/26 00:52:09;;;;;;;114.72;31.63;;;;;;;;;;4899698;29;20392;-77
2023/01/26 00:54:36;;;;;;;132.00;30.25;;;;;;;;;;4889749;29;20393;-78
2023/01/26 00:57:02;;;;;;;125.18;30.92;;;;;;;;;;4902735;29;20051;-77
2023/01/26 00:59:31;;;;;;;131.48;30.88;;;;;;;;;;4918380;29;20035;-70
2023/01/26 01:01:57;;;;;;;129.88;31.55;;;2.40;99.90;;;;;;4887804;29;20051;-70
2023/01/26 01:04:24;;;;;;;109.30;30.15;;;;;;;;;;4919128;29;20527;-71
2023/01/26 01:06:50;;;;;;;120.75;30.55;;;;;;;;;;4918387;29;20047;-70
2023/01/26 01:09:17;;;;;;;121.07;30.67;;;;;;;;;;4912851;29;20050;-70
2023/01/26 01:11:44;;;;;;;123.72;31.13;;;;;;;;;;4908131;29;20039;-71
2023/01/26 01:14:11;;;;;;;118.55;30.92;;;;;;;;;;4918880;29;20055;-70
2023/01/26 01:16:37;;;;;;;118.68;30.10;;;;;;;;;;4918600;29;20388;-70
2023/01/26 01:19:03;;;;;;;118.70;31.30;;;;;;;;;;4919143;29;20040;-70
2023/01/26 01:21:31;;;;;;;114.53;29.45;;;;;;;;;;4918635;29;20047;-70
2023/01/26 01:23:57;;;;;;;105.80;29.23;;;;;;;;;;4903215;29;20051;-71
2023/01/26 01:26:23;;;;;;;115.63;31.15;;;;;;;;;;4902703;29;20154;-71
2023/01/26 01:28:52;;;;;;;109.78;26.77;;;;;;;;;;4893360;29;20043;-70
2023/01/26 01:31:18;;;;;;;104.40;29.45;;;;;;;;;;4918249;29;20107;-72
2023/01/26 01:33:46;;;;;;;114.93;29.90;;;;;;;;;;4918039;29;20103;-71
2023/01/26 01:36:14;;;;;;;109.50;27.73;;;2.50;99.90;;;;;;4889492;29;20048;-71
2023/01/26 01:38:40;;;;;;;104.47;27.63;;;;;;;;;;4902328;29;20437;-71
2023/01/26 01:41:06;;;;;;;111.57;29.42;;;;;;;;;;4918204;29;20044;-70
2023/01/26 01:43:32;;;;;;;101.40;26.90;;;;;;;;;;4914324;29;20385;-71
2023/01/26 01:46:00;;;;;;;104.28;28.25;;;;;;;;;;4888740;29;20048;-71
2023/01/26 01:48:26;;;;;;;98.68;29.30;;;;;;;;;;4902361;29;20047;-71
2023/01/26 01:50:53;;;;;;;98.15;27.10;;;;;;;;;;4918129;29;20070;-71
2023/01/26 01:53:24;;;;;;;100.53;27.65;;;;;;;;;;4918401;29;20127;-70
2023/01/26 01:55:54;;;;;;;115.78;29.35;;;2.40;99.90;;;;;;4891124;29;20044;-71
2023/01/26 01:58:21;;;;;;;112.70;29.27;;;2.40;99.90;;;;;;4899433;29;20504;-71
2023/01/26 02:00:47;;;;;;;108.15;29.35;;;;;;;;;;4899271;29;20036;-71
2023/01/26 02:03:13;;;;;;;131.48;32.15;;;;;;;;;;4891836;29;20518;-71
2023/01/26 02:05:56;;;;;;;111.90;28.75;;;2.20;99.90;;;;;;4905875;29;20042;-70
2023/01/26 02:08:34;;;;;;;115.72;28.95;;;;;;;;;;4937639;29;20054;-70
2023/01/26 02:11:05;;;;;;;113.13;29.40;;;2.40;99.90;;;;;;4921614;29;20044;-71
2023/01/26 02:13:31;;;;;;;108.80;27.67;;;;;;;;;;4919821;29;20047;-71
2023/01/26 02:15:59;;;;;;;116.25;30.80;;;;;;;;;;4912547;29;20044;-70
2023/01/26 02:18:25;;;;;;;107.15;28.50;;;;;;;;;;4903400;29;20051;-70
2023/01/26 02:21:06;;;;;;;114.28;28.95;;;2.40;99.90;;;;;;4905848;29;20039;-70
2023/01/26 02:23:38;;;;;;;110.85;27.88;;;;;;;;;;4921534;29;20523;-71
2023/01/26 02:26:04;;;;;;;106.30;28.85;;;;;;;;;;4917138;29;20047;-70
2023/01/26 02:28:31;;;;;;;109.75;29.10;;;;;;;;;;4902979;29;20044;-70
2023/01/26 02:30:58;;;;;;;120.72;30.30;;;;;;;;;;4905507;29;20130;-70
2023/01/26 02:33:26;;;;;;;118.03;30.77;;;;;;;;;;4921164;29;20527;-71
2023/01/26 02:35:52;;;;;;;113.20;29.83;;;;;;;;;;4919353;29;20056;-70
2023/01/26 02:38:19;;;;;;;117.65;29.67;;;;;;;;;;4887149;29;20044;-70
2023/01/26 02:41:06;;;;;;;125.03;31.23;;;2.60;99.90;;;;;;4902531;29;20397;-70
2023/01/26 02:43:32;;;;;;;119.30;29.98;;;;;;;;;;4917000;29;20044;-70
2023/01/26 02:45:58;;;;;;;112.28;30.02;;;;;;;;;;4902350;29;20044;-70
2023/01/26 02:51:09;;;;;;;112.05;28.58;;;;;;;;;;4902025;29;20476;-70
2023/01/26 02:53:35;;;;;;;122.25;28.42;;;;;;;;;;4918825;29;20516;-71
2023/01/26 02:56:02;;;;;;;133.93;34.25;;;;;;;;;;4920412;29;20556;-70
2023/01/26 02:58:28;;;;;;;129.13;30.30;;;;;;;;;;4905080;29;20071;-71
2023/01/26 03:00:54;;;;;;;129.68;31.40;;;;;;;;;;4918710;29;20035;-70
2023/01/26 03:03:24;;;;;;;111.80;29.83;;;2.70;99.90;;;;;;4902012;29;20044;-70
2023/01/26 03:05:51;;;;;;;135.18;33.25;;;;;;;;;;4905542;29;20143;-70
2023/01/26 03:08:17;;;;;;;129.30;31.30;;;;;;;;;;4920517;29;20075;-70
2023/01/26 03:10:46;;;;;;;123.22;32.70;;;;;;;;;;4918395;29;20048;-70
2023/01/26 03:13:13;;;;;;;128.98;32.03;;;;;;;;;;4901492;29;20095;-70
2023/01/26 03:15:41;;;;;;;120.63;31.55;;;;;;;;;;4901410;29;20084;-70
2023/01/26 03:29:15;;;;;;;132.02;33.33;;;;;;;;;;4920403;29;20066;-70
2023/01/26 03:31:41;;;;;;;123.95;31.30;;;;;;;;;;4919547;29;20401;-70
2023/01/26 03:34:08;;;;;;;137.52;31.58;;;;;;;;;;4897088;29;20396;-70
2023/01/26 03:36:34;;;;;;;135.93;32.35;;;;;;;;;;4876015;29;20050;-70
2023/01/26 03:39:00;;;;;;;141.60;31.27;;;;;;;;;;4920145;29;20072;-70
2023/01/26 03:57:53;;;;;;;135.77;29.48;;;;;;;;;;4918802;29;20070;-70
2023/01/26 04:00:20;;;;;;;126.60;27.13;;;;;;;;;;4904231;29;20126;-70
2023/01/26 04:08:22;;;;;;;116.28;22.58;;;;;;;;;;4891347;29;20056;-70
2023/01/26 04:10:51;;;;;;;117.63;22.00;;;;;;;;;;4901023;29;20111;-70
2023/01/26 04:21:34;;;;;;;119.40;16.10;;;;;;;;;;4916857;29;20518;-70
2023/01/26 04:24:08;;;;;;;98.68;15.18;;;3.70;99.90;;;;;;4885565;29;20036;-70
2023/01/26 04:26:35;;;;;;;83.30;11.95;;;3.80;99.90;;;;;;4900797;29;20087;-70
2023/01/26 04:29:02;;;;;;;128.38;12.52;;;;;;;;;;4919345;29;20556;-70
2023/01/26 04:31:28;;;;;;;81.00;9.63;;;;;;;;;;4919278;29;20043;-70
2023/01/26 04:33:55;;;;;;;68.47;8.70;;;;;;;;;;4902746;29;20066;-70
2023/01/26 04:36:21;;;;;;;72.07;8.02;;;;;;;;;;4918880;29;20043;-70
2023/01/26 04:38:48;;;;;;;76.13;7.70;;;;;;;;;;4903009;29;20501;-70
2023/01/26 04:41:14;;;;;;;78.20;7.53;;;;;;;;;;4899932;29;20460;-70
2023/01/26 04:43:40;;;;;;;74.88;5.97;;;;;;;;;;4916002;29;20120;-70
2023/01/26 04:46:07;;;;;;;68.63;5.90;;;;;;;;;;4919143;29;20066;-71
2023/01/26 04:48:34;;;;;;;68.10;6.32;;;;;;;;;;4903586;29;20476;-70
2023/01/26 04:51:04;;;;;;;78.82;6.90;;;;;;;;;;4919292;29;20047;-70
2023/01/26 04:53:31;;;;;;;55.95;5.35;;;4.50;99.90;;;;;;4917248;29;20050;-71
2023/01/26 04:55:57;;;;;;;77.90;6.20;;;;;;;;;;4884579;29;20052;-71
2023/01/26 04:58:23;;;;;;;81.10;5.88;;;;;;;;;;4884506;29;20433;-70
2023/01/26 05:00:54;;;;;;;80.30;8.02;;;4.60;99.90;;;;;;4884447;29;20116;-71
2023/01/26 05:03:20;;;;;;;77.13;6.75;;;;;;;;;;4884295;29;20040;-70
2023/01/26 05:05:51;;;;;;;45.03;4.07;;;4.50;99.90;;;;;;4900045;29;20058;-70
2023/01/26 05:08:17;;;;;;;58.28;5.13;;;;;;;;;;4908205;29;20043;-70
2023/01/26 05:10:43;;;;;;;71.68;5.72;;;;;;;;;;4918814;29;20039;-70
2023/01/26 05:13:10;;;;;;;74.20;5.65;;;;;;;;;;4908507;29;20055;-70
2023/01/26 05:15:36;;;;;;;69.78;7.40;;;;;;;;;;4900081;29;20465;-70
2023/01/26 05:18:02;;;;;;;72.03;6.13;;;;;;;;;;4904529;29;20524;-71
2023/01/26 05:20:29;;;;;;;79.65;5.82;;;;;;;;;;4903410;29;20384;-70
2023/01/26 05:22:55;;;;;;;61.38;5.18;;;;;;;;;;4926760;29;20048;-70
2023/01/26 05:25:21;;;;;;;89.07;6.18;;;;;;;;;;4918699;29;20039;-70
2023/01/26 05:27:47;;;;;;;61.28;5.63;;;;;;;;;;4902618;29;20094;-70
2023/01/26 05:30:13;;;;;;;84.13;5.55;;;;;;;;;;4918677;29;20078;-72
2023/01/26 05:32:39;;;;;;;71.13;5.20;;;;;;;;;;4912917;29;20547;-71
2023/01/26 05:35:06;;;;;;;93.72;5.88;;;;;;;;;;4899698;29;20083;-71
2023/01/26 05:37:32;;;;;;;55.38;5.10;;;;;;;;;;4900948;29;20040;-71
2023/01/26 05:39:59;;;;;;;68.78;4.68;;;;;;;;;;4903433;29;20046;-71
2023/01/26 05:42:25;;;;;;;81.15;6.50;;;;;;;;;;4910298;29;20036;-71
2023/01/26 05:44:51;;;;;;;86.32;7.43;;;;;;;;;;4891965;29;20123;-71
2023/01/26 05:47:18;;;;;;;70.43;6.57;;;4.70;99.90;;;;;;4913935;29;20048;-71
2023/01/26 05:49:44;;;;;;;75.53;6.28;;;;;;;;;;4903445;29;20055;-71
2023/01/26 05:52:12;;;;;;;85.95;5.90;;;;;;;;;;4916009;29;20044;-71
2023/01/26 05:54:38;;;;;;;88.43;6.68;;;;;;;;;;4919159;29;20039;-71
2023/01/26 05:57:04;;;;;;;65.85;4.22;;;;;;;;;;4888421;29;20048;-71
2023/01/26 05:59:30;;;;;;;55.95;5.68;;;;;;;;;;4906192;29;20044;-71
2023/01/26 06:01:59;;;;;;;80.07;6.95;;;4.30;99.90;;;;;;4889435;29;20048;-71
2023/01/26 06:04:25;;;;;;;77.80;7.03;;;;;;;;;;4902970;29;20048;-71
2023/01/26 06:06:52;;;;;;;50.17;4.07;;;4.30;99.90;;;;;;4903151;29;20055;-71
2023/01/26 06:09:19;;;;;;;72.72;5.38;;;;;;;;;;4920139;29;20103;-71
2023/01/26 06:11:45;;;;;;;67.07;6.45;;;;;;;;;;4918737;29;20039;-71
2023/01/26 06:14:11;;;;;;;56.83;5.55;;;;;;;;;;4902974;29;20146;-71
2023/01/26 06:16:37;;;;;;;90.15;5.97;;;;;;;;;;4888178;29;20559;-72
2023/01/26 06:19:03;;;;;;;58.78;4.93;;;;;;;;;;4915144;29;20036;-72
2023/01/26 06:21:33;;;;;;;72.50;5.55;;;;;;;;;;4904562;29;20095;-71
2023/01/26 06:23:59;;;;;;;83.20;5.95;;;;;;;;;;4910151;29;20091;-72
2023/01/26 06:26:25;;;;;;;68.72;4.88;;;;;;;;;;4909394;29;20076;-71
2023/01/26 06:28:52;;;;;;;80.82;7.28;;;;;;;;;;4917425;29;20424;-72
2023/01/26 06:31:18;;;;;;;68.10;5.90;;;;;;;;;;4911390;29;20040;-72
2023/01/26 06:33:44;;;;;;;80.95;6.45;;;;;;;;;;4896292;29;20118;-72
2023/01/26 06:36:13;;;;;;;68.40;4.88;;;4.50;99.90;;;;;;4904573;29;20131;-71
2023/01/26 06:38:44;;;;;;;63.10;6.60;;;4.50;99.90;;;;;;4912780;29;20040;-72
2023/01/26 06:41:11;;;;;;;44.33;5.72;;;;;;;;;;4907813;29;20090;-71
2023/01/26 06:43:37;;;;;;;70.10;8.23;;;;;;;;;;4897003;29;20035;-71
2023/01/26 06:46:04;;;;;;;58.08;5.60;;;4.20;99.90;;;;;;4897980;29;20082;-72
2023/01/26 06:48:32;;;;;;;68.75;6.05;;;;;;;;;;4911974;29;20040;-73
2023/01/26 06:51:13;;;;;;;78.32;6.07;;;;;;;;;;4936780;29;20161;-70
2023/01/26 06:53:42;;;;;;;80.75;9.73;;;4.30;99.90;;;;;;4930562;29;20123;-70
2023/01/26 06:56:08;;;;;;;62.85;6.75;;;;;;;;;;4913705;29;20119;-70
2023/01/26 06:58:34;;;;;;;68.95;5.80;;;;;;;;;;4920515;29;20052;-70
2023/01/26 07:01:01;;;;;;;60.00;5.95;;;;;;;;;;4904742;29;20151;-70
2023/01/26 07:03:27;;;;;;;57.88;4.85;;;;;;;;;;4904265;29;20046;-70
2023/01/26 07:05:53;;;;;;;70.88;6.68;;;;;;;;;;4919868;29;20039;-70
2023/01/26 07:08:19;;;;;;;83.53;6.95;;;;;;;;;;4911651;29;20031;-70
2023/01/26 07:10:45;;;;;;;58.10;6.75;;;;;;;;;;4908938;29;20103;-70
2023/01/26 07:13:11;;;;;;;27.65;5.82;;;;;;;;;;4912214;29;20043;-69
2023/01/26 07:15:37;;;;;;;63.60;6.93;;;;;;;;;;4909673;29;20083;-70
2023/01/26 07:18:03;;;;;;;63.90;5.60;;;;;;;;;;4910783;29;20044;-70
2023/01/26 07:20:29;;;;;;;50.33;4.72;;;;;;;;;;4912462;29;20042;-70
2023/01/26 07:22:55;;;;;;;73.75;6.32;;;;;;;;;;4907522;29;20039;-70
2023/01/26 07:25:21;;;;;;;72.20;5.20;;;;;;;;;;4890008;29;20036;-70
2023/01/26 07:27:48;;;;;;;63.33;4.65;;;;;;;;;;4903253;29;20044;-70
2023/01/26 07:30:14;;;;;;;63.80;5.85;;;;;;;;;;4903917;29;20504;-70
2023/01/26 07:32:40;;;;;;;84.78;8.68;;;;;;;;;;4914444;29;20055;-70
2023/01/26 07:35:07;;;;;;;67.05;5.53;;;;;;;;;;4889048;29;20074;-70
2023/01/26 07:37:33;;;;;;;66.10;6.20;;;;;;;;;;4903950;29;20127;-70
2023/01/26 07:39:59;;;;;;;59.33;4.63;;;;;;;;;;4912007;29;20119;-70
2023/01/26 07:42:25;;;;;;;57.78;6.88;;;;;;;;;;4907980;29;20074;-70
2023/01/26 07:44:51;;;;;;;64.93;4.60;;;;;;;;;;4919987;29;20079;-70
2023/01/26 07:47:18;;;;;;;53.80;5.07;;;;;;;;;;4920194;29;20048;-70
2023/01/26 07:49:46;;;;;;;51.60;5.32;;;;;;;;;;4904263;29;20495;-76
2023/01/26 07:52:12;;;;;;;70.65;7.50;;;;;;;;;;4901074;29;20044;-76
2023/01/26 07:54:38;;;;;;;48.33;5.47;;;;;;;;;;4885678;29;20083;-76
2023/01/26 07:57:07;;;;;;;64.47;6.57;;;;;;;;;;4896771;29;20036;-76
2023/01/26 07:59:33;;;;;;;58.90;6.53;;;;;;;;;;4919510;29;20047;-75
2023/01/26 08:01:59;;;;;;;40.55;4.95;;;;;;;;;;4919773;29;20040;-76
2023/01/26 08:04:25;;;;;;;48.47;4.85;;;;;;;;;;4919765;29;20044;-76
2023/01/26 08:06:52;;;;;;;50.47;4.65;;;;;;;;;;4886870;29;20505;-76
2023/01/26 08:09:18;;;;;;;66.93;6.10;;;;;;;;;;4919249;29;20043;-75
2023/01/26 08:11:44;;;;;;;70.22;5.78;;;;;;;;;;4899241;29;20048;-77
2023/01/26 08:14:10;;;;;;;60.88;6.72;;;;;;;;;;4911903;29;20044;-78
2023/01/26 08:16:37;;;;;;;62.15;6.22;;;;;;;;;;4903684;29;20496;-77
2023/01/26 08:19:03;;;;;;;58.05;4.50;;;;;;;;;;4936933;29;20046;-76
2023/01/26 08:21:29;;;;;;;66.50;6.28;;;;;;;;;;4938346;29;20042;-77
2023/01/26 08:24:00;;;;;;;60.72;6.03;;;;;;;;;;4938040;29;20043;-77
2023/01/26 08:26:26;;;;;;;59.88;6.00;;;;;;;;;;4923547;29;20051;-77
2023/01/26 08:28:52;;;;;;;47.65;5.80;;;;;;;;;;4938399;29;20043;-77
2023/01/26 08:31:19;;;;;;;60.75;5.22;;;;;;;;;;4922695;29;20404;-77
2023/01/26 08:33:50;;;;;;;60.08;5.80;;;4.40;99.90;;;;;;4922225;29;20058;-77
2023/01/26 08:36:16;;;;;;;57.83;5.15;;;4.50;99.90;;;;;;4938187;29;20043;-77
2023/01/26 08:38:43;;;;;;;54.38;4.90;;;4.60;99.90;;;;;;4937810;29;20079;-78
2023/01/26 08:41:09;;;;;;;37.05;4.93;;;;;;;;;;4909793;29;20054;-77
2023/01/26 08:43:35;;;;;;;55.60;4.72;;;;;;;;;;4919111;29;20079;-77
2023/01/26 08:46:01;;;;;;;61.90;6.13;;;;;;;;;;4903371;29;20548;-77
2023/01/26 08:48:29;;;;;;;52.63;4.45;;;;;;;;;;4900154;29;20481;-77
2023/01/26 08:50:57;;;;;;;54.53;4.93;;;4.50;99.90;;;;;;4915969;29;20469;-76
2023/01/26 08:53:23;;;;;;;46.05;5.05;;;;;;;;;;4899971;29;20515;-77
2023/01/26 08:55:50;;;;;;;39.78;4.90;;;;;;;;;;4884367;29;20040;-77
2023/01/26 08:58:16;;;;;;;59.17;5.40;;;;;;;;;;4909611;29;20040;-77
2023/01/26 09:00:42;;;;;;;49.47;4.68;;;;;;;;;;4903855;29;20071;-77
2023/01/26 09:03:08;;;;;;;65.45;6.40;;;;;;;;;;4918968;29;20043;-77
2023/01/26 09:05:36;;;;;;;65.80;6.43;;;;;;;;;;4919154;29;20040;-77
2023/01/26 09:08:04;;;;;;;58.15;6.25;;;4.80;99.90;;;;;;4918998;29;20051;-77
2023/01/26 09:10:30;;;;;;;50.42;5.47;;;;;;;;;;4903398;29;20052;-76
2023/01/26 09:13:00;;;;;;;47.10;6.28;;;;;;;;;;4918681;29;20494;-77
2023/01/26 09:15:26;;;;;;;60.75;6.85;;;5.10;99.90;;;;;;4903004;29;20043;-77
2023/01/26 09:17:52;;;;;;;41.35;4.57;;;;;;;;;;4918481;29;20047;-78
2023/01/26 09:20:19;;;;;;;54.95;4.57;;;;;;;;;;4919125;29;20035;-77
2023/01/26 09:22:45;;;;;;;49.40;4.00;;;;;;;;;;4918463;29;20043;-77
2023/01/26 09:25:11;;;;;;;45.30;4.63;;;;;;;;;;4919374;29;20103;-77
2023/01/26 09:27:38;;;;;;;87.00;7.43;;;;;;;;;;4918876;29;20103;-77
2023/01/26 09:30:05;;;;;;;54.15;5.47;;;;;;;;;;4919187;29;20114;-77
2023/01/26 09:32:31;;;;;;;57.95;4.55;;;;;;;;;;4918599;29;20103;-77
2023/01/26 09:34:57;;;;;;;51.80;4.28;;;;;;;;;;4918763;29;20075;-77
2023/01/26 09:37:23;;;;;;;58.50;5.10;;;;;;;;;;4918780;29;20449;-77
2023/01/26 09:39:49;;;;;;;68.22;4.70;;;;;;;;;;4918765;29;20080;-77
2023/01/26 09:43:13;;;;;;;41.55;4.70;;;6.00;99.90;;;;;;4918583;29;20126;-77
2023/01/26 09:46:02;;;;;;;63.97;6.68;;;6.10;99.90;;;;;;4843037;29;20042;-77
2023/01/26 09:48:37;;;;;;;46.75;5.78;;;;;;;;;;4837671;29;20042;-77
2023/01/26 09:51:06;;;;;;;55.42;5.38;;;;;;;;;;4882389;29;20060;-77
2023/01/26 09:53:47;;;;;;;49.53;5.05;;;;;;;;;;4924128;29;20040;-77
2023/01/26 09:56:18;;;;;;;54.80;5.55;;;;;;;;;;4934224;29;20047;-77
2023/01/26 09:58:52;;;;;;;43.78;4.88;;;6.20;99.90;;;;;;4908716;29;20071;-77
2023/01/26 10:01:25;;;;;;;45.63;6.30;;;6.20;99.90;;;;;;4899443;29;20044;-77
2023/01/26 10:04:20;;;;;;;72.43;4.80;;;6.30;99.90;;;;;;4899836;29;20511;-77
2023/01/26 10:06:46;;;;;;;55.20;4.47;;;;;;;;;;4889817;29;20064;-77
2023/01/26 10:09:15;;;;;;;58.15;5.75;;;;;;;;;;4899150;29;20048;-77
2023/01/26 10:11:46;;;;;;;45.15;4.43;;;;;;;;;;4899244;29;20055;-77
2023/01/26 10:14:13;;;;;;;42.30;5.22;;;;;;;;;;4925500;29;20075;-77
2023/01/26 10:16:39;;;;;;;49.55;4.72;;;;;;;;;;4905627;29;20048;-77
2023/01/26 10:19:12;;;;;;;47.05;5.10;;;6.40;99.90;;;;;;4907331;29;20602;-77
2023/01/26 10:21:44;;;;;;;40.35;4.13;;;6.50;99.90;;;;;;4917399;29;20157;-77
2023/01/26 10:24:11;;;;;;;34.10;5.00;;;;;;;;;;4896872;29;20055;-77
2023/01/26 10:26:37;;;;;;;47.30;5.40;;;;;;;;;;4906405;29;20511;-77
2023/01/26 10:29:03;;;;;;;49.47;5.85;;;;;;;;;;4913606;29;20044;-77
2023/01/26 10:31:31;;;;;;;52.75;4.75;;;;;;;;;;4902852;29;20070;-77
2023/01/26 10:34:02;;;;;;;28.90;3.97;;;6.70;99.90;;;;;;4907597;29;20059;-77
2023/01/26 10:36:31;;;;;;;36.45;4.22;;;6.70;99.90;;;;;;4903613;29;20050;-77
2023/01/26 10:39:07;;;;;;;43.30;6.35;;;;;;;;;;4916125;29;20087;-77
2023/01/26 10:41:34;;;;;;;47.38;3.60;;;;;;;;;;4918539;29;20043;-77
2023/01/26 10:44:04;;;;;;;32.80;2.92;;;;;;;;;;4915695;29;20044;-77
2023/01/26 10:46:38;;;;;;;46.83;4.75;;;;;;;;;;4889473;29;20457;-77
2023/01/26 10:49:16;;;;;;;54.30;4.18;;;;;;;;;;4908864;29;20103;-77
2023/01/26 10:51:44;;;;;;;37.65;3.67;;;;;;;;;;4918547;29;20584;-77
2023/01/26 10:54:24;;;;;;;46.67;5.32;;;6.80;99.90;;;;;;4910490;29;20039;-78
2023/01/26 10:56:50;;;;;;;37.60;3.90;;;;;;;;;;4905408;29;20036;-77
2023/01/26 10:59:22;;;;;;;44.00;3.47;;;;;;;;;;4917061;29;20119;-77
2023/01/26 11:02:14;;;;;;;34.90;4.40;;;;;;;;;;4902121;29;20511;-77
2023/01/26 11:04:41;;;;;;;48.42;5.18;;;;;;;;;;4911861;29;20374;-77
2023/01/26 11:07:22;;;;;;;46.08;6.03;;;;;;;;;;4901919;29;20126;-77
2023/01/26 11:09:50;;;;;;;39.78;4.03;;;;;;;;;;4918957;29;20126;-76
2023/01/26 11:12:18;;;;;;;35.85;5.63;;;7.10;99.90;;;;;;4917130;29;20045;-77
2023/01/26 11:14:59;;;;;;;40.40;4.22;;;;;;;;;;4893735;29;20048;-77
2023/01/26 11:17:29;;;;;;;56.08;5.57;;;;;;;;;;4908947;29;20044;-76
2023/01/26 11:20:07;;;;;;;53.08;5.43;;;;;;;;;;4897878;29;20099;-76
2023/01/26 11:22:40;;;;;;;35.78;4.72;;;;;;;;;;4932123;29;20046;-76
2023/01/26 11:25:31;;;;;;;45.97;4.97;;;7.30;99.90;;;;;;4918589;29;20071;-76
2023/01/26 11:27:59;;;;;;;28.50;2.97;;;;;;;;;;4910247;29;20051;-77
2023/01/26 11:30:28;;;;;;;39.40;4.13;;;;;;;;;;4890237;29;20078;-76
2023/01/26 11:33:06;;;;;;;39.13;3.70;;;;;;;;;;4911660;29;20056;-76
2023/01/26 11:35:32;;;;;;;31.23;3.70;;;;;;;;;;4885272;29;20061;-76
2023/01/26 11:38:14;;;;;;;31.48;4.55;;;;;;;;;;4905115;29;20075;-76
2023/01/26 11:41:06;;;;;;;40.90;3.95;;;7.60;99.90;;;;;;4920382;29;20040;-76
2023/01/26 11:43:54;;;;;;;27.23;3.60;;;7.50;99.90;;;;;;4915093;29;20075;-76
2023/01/26 11:46:20;;;;;;;25.42;3.22;;;;;;;;;;4904548;29;20044;-76
2023/01/26 11:48:51;;;;;;;24.13;2.35;;;;;;;;;;4898870;29;20040;-76
2023/01/26 11:51:20;;;;;;;24.75;3.13;;;;;;;;;;4901066;29;20075;-77
2023/01/26 11:53:59;;;;;;;35.92;2.92;;;;;;;;;;4887348;29;20043;-77
2023/01/26 11:56:37;;;;;;;27.63;4.10;;;;;;;;;;4904900;29;20044;-76
2023/01/26 11:59:06;;;;;;;23.10;4.07;;;;;;;;;;4912670;29;20104;-76
2023/01/26 12:01:35;;;;;;;34.53;3.35;;;;;;;;;;4900933;29;20127;-77
2023/01/26 12:04:01;;;;;;;29.55;3.53;;;;;;;;;;4908420;29;20076;-77
2023/01/26 12:06:38;;;;;;;30.10;3.20;;;;;;;;;;4915692;29;20382;-76
2023/01/26 12:09:17;;;;;;;28.13;4.15;;;;;;;;;;4890320;29;20075;-76
2023/01/26 12:11:56;;;;;;;32.95;2.80;;;;;;;;;;4919674;29;20055;-76
2023/01/26 12:14:34;;;;;;;27.70;2.78;;;7.40;99.90;;;;;;4914746;29;20436;-76
2023/01/26 12:17:31;;;;;;;23.25;3.03;;;7.70;99.90;;;;;;4917634;29;20043;-76
2023/01/26 12:20:03;;;;;;;24.25;2.85;;;;;;;;;;4934243;29;20123;-76
2023/01/26 12:22:32;;;;;;;;;;;7.60;99.90;;;;;;4902200;29;20486;-77
2023/01/26 12:25:03;;;;;;;40.78;3.88;;;;;;;;;;4915116;29;20398;-77
2023/01/26 12:27:33;;;;;;;34.80;3.22;;;;;;;;;;4914456;29;20040;-76
2023/01/26 12:30:06;;;;;;;35.28;4.78;;;;;;;;;;4917778;29;20126;-76
2023/01/26 12:32:32;;;;;;;31.83;2.95;;;7.90;99.90;;;;;;4917104;29;20087;-77
2023/01/26 12:34:58;;;;;;;33.33;5.07;;;;;;;;;;4906754;29;20412;-77
2023/01/26 12:37:27;;;;;;;24.00;2.83;;;;;;;;;;4915782;29;20044;-77
2023/01/26 12:39:59;;;;;;;25.08;3.03;;;;;;;;;;4901716;29;20042;-76
2023/01/26 12:42:35;;;;;;;27.90;3.33;;;7.80;99.90;;;;;;4916906;29;20393;-76
2023/01/26 12:45:01;;;;;;;17.40;3.47;;;;;;;;;;4912910;29;20039;-76
2023/01/26 12:47:33;;;;;;;36.78;4.57;;;;;;;;;;4927261;29;20179;-76
2023/01/26 12:49:59;;;;;;;27.00;3.30;;;;;;;;;;4918068;29;20040;-77
2023/01/26 12:52:31;;;;;;;24.17;2.88;;;;;;;;;;4912808;29;20047;-77
2023/01/26 12:55:02;;;;;;;23.13;3.00;;;;;;;;;;4900257;29;20053;-77
2023/01/26 12:57:45;;;;;;;40.20;3.53;;;7.90;99.90;;;;;;4904734;29;20044;-77
2023/01/26 13:00:18;;;;;;;25.63;3.22;;;;;;;;;;4897204;29;20046;-77
2023/01/26 13:02:44;;;;;;;;;;;;;;;;;;4935305;29;20043;-77
2023/01/26 13:05:22;;;;;;;30.13;3.63;;;;;;;;;;4931989;29;19918;-77
2023/01/26 13:07:48;;;;;;;36.17;2.97;;;;;;;;;;4915128;29;20123;-77
2023/01/26 13:10:14;;;;;;;30.83;3.13;;;;;;;;;;4908036;29;20043;-77
2023/01/26 13:13:00;;;;;;;38.80;5.25;;;;;;;;;;4934365;29;20043;-77
2023/01/26 13:15:28;;;;;;;32.53;4.22;;;;;;;;;;4895290;29;20051;-77
2023/01/26 13:17:58;;;;;;;34.22;5.15;;;;;;;;;;4917783;29;20036;-76
2023/01/26 13:20:24;;;;;;;38.33;2.95;;;;;;;;;;4896213;29;20044;-75
2023/01/26 13:22:51;;;;;;;30.98;3.47;;;;;;;;;;4931255;29;20048;-76
2023/01/26 13:25:20;;;;;;;36.38;3.95;;;;;;;;;;4903426;29;20119;-76
2023/01/26 13:27:57;;;;;;;36.65;3.63;;;7.70;99.90;;;;;;4918165;29;20046;-76
2023/01/26 13:30:26;;;;;;;34.03;4.43;;;;;;;;;;4916232;29;20056;-77
2023/01/26 13:33:00;;;;;;;34.50;4.05;;;7.70;99.90;;;;;;4913573;29;20378;-77
2023/01/26 13:35:27;;;;;;;22.90;3.95;;;;;;;;;;4912801;29;20056;-77
2023/01/26 13:37:53;;;;;;;26.98;3.20;;;;;;;;;;4934658;29;20043;-77
2023/01/26 13:40:27;;;;;;;30.27;2.95;;;7.80;99.90;;;;;;4932001;29;20107;-76
2023/01/26 13:42:53;;;;;;;24.70;3.72;;;;;;;;;;4910835;29;20507;-77
2023/01/26 13:45:39;;;;;;;26.98;2.33;;;;;;;;;;4911695;29;20048;-77
2023/01/26 13:48:11;;;;;;;35.83;2.95;;;;;;;;;;4917419;29;20127;-76
2023/01/26 13:50:37;;;;;;;26.65;2.70;;;;;;;;;;4897580;29;20052;-77
2023/01/26 13:53:54;;;;;;;22.60;2.85;;;7.40;99.90;;;;;;4934901;29;20134;-77
2023/01/26 13:56:26;;;;;;;30.48;4.05;;;7.60;99.90;;;;;;4876541;29;20517;-77
2023/01/26 13:58:52;;;;;;;36.70;3.22;;;;;;;;;;4858816;29;20037;-77
2023/01/26 14:01:19;;;;;;;40.58;3.47;;;;;;;;;;4900454;29;20108;-77
2023/01/26 14:03:45;;;;;;;39.28;3.95;;;;;;;;;;4908169;29;20070;-76
2023/01/26 14:06:16;;;;;;;36.58;3.30;;;7.50;99.90;;;;;;4921847;29;20567;-77
2023/01/26 14:08:46;;;;;;;41.13;4.93;;;;;;;;;;4919902;29;20042;-77
2023/01/26 14:11:18;;;;;;;36.55;4.75;;;;;;;;;;4911338;29;20122;-77
2023/01/26 14:13:49;;;;;;;33.95;3.17;;;7.50;99.90;;;;;;4910493;29;20365;-77
2023/01/26 14:16:23;;;;;;;35.22;3.17;;;7.50;99.90;;;;;;4900498;29;20043;-77
2023/01/26 14:18:49;;;;;;;32.35;3.38;;;;;;;;;;4909174;29;20122;-77
2023/01/26 14:21:22;;;;;;;36.80;3.42;;;7.50;99.90;;;;;;4909113;29;20046;-77
2023/01/26 14:23:57;;;;;;;34.67;3.15;;;;;;;;;;4902735;29;20508;-77
2023/01/26 14:26:32;;;;;;;20.92;3.03;;;;;;;;;;4907844;29;20048;-77
2023/01/26 14:28:59;;;;;;;28.45;3.67;;;7.40;99.90;;;;;;4903663;29;20048;-77
2023/01/26 14:31:27;;;;;;;23.58;2.83;;;7.40;99.90;;;;;;4914639;29;20102;-77
2023/01/26 14:33:56;;;;;;;21.58;2.67;;;;;;;;;;4911208;29;20052;-77
2023/01/26 14:36:24;;;;;;;31.98;3.28;;;;;;;;;;4906632;29;20047;-77
2023/01/26 14:38:51;;;;;;;31.23;3.33;;;7.30;99.90;;;;;;4909298;29;20389;-77
2023/01/26 14:41:22;;;;;;;32.53;4.47;;;7.40;99.90;;;;;;4902759;29;20033;-76
2023/01/26 14:43:49;;;;;;;33.80;4.00;;;;;;;;;;4909170;29;20050;-76
2023/01/26 14:46:17;;;;;;;30.13;4.15;;;;;;;;;;4911280;29;20044;-77
2023/01/26 14:48:51;;;;;;;42.90;3.60;;;7.20;99.90;;;;;;4891953;29;20071;-77
2023/01/26 14:51:23;;;;;;;29.45;3.70;;;7.40;99.90;;;;;;4908092;29;20108;-76
2023/01/26 14:54:02;;;;;;;29.35;2.88;;;7.40;99.90;;;;;;4910828;29;20123;-76
2023/01/26 14:56:33;;;;;;;34.28;4.00;;;;;;;;;;4907526;29;20040;-77